sensor_id;sensor_type;location;lat;lon;timestamp;P1;durP1;ratioP1;P2;durP2;ratioP2
76194;SDS011;64964;48.694;21.206;2024-03-07T00:02:07;5.22;;;3.90;;
76194;SDS011;64964;48.694;21.206;2024-03-07T00:04:33;7.07;;;3.70;;
76194;SDS011;64964;48.694;21.206;2024-03-07T00:06:59;5.40;;;3.60;;
76194;SDS011;64964;48.694;21.206;2024-03-07T00:09:24;4.40;;;3.60;;
76194;SDS011;64964;48.694;21.206;2024-03-07T00:11:50;4.87;;;3.33;;
76194;SDS011;64964;48.694;21.206;2024-03-07T00:14:15;5.33;;;3.27;;
76194;SDS011;64964;48.694;21.206;2024-03-07T00:16:41;4.45;;;3.33;;
76194;SDS011;64964;48.694;21.206;2024-03-07T00:19:06;4.30;;;3.30;;
76194;SDS011;64964;48.694;21.206;2024-03-07T00:21:31;4.13;;;3.30;;
76194;SDS011;64964;48.694;21.206;2024-03-07T00:23:57;4.57;;;3.10;;
76194;SDS011;64964;48.694;21.206;2024-03-07T00:26:22;4.43;;;3.05;;
76194;SDS011;64964;48.694;21.206;2024-03-07T00:28:48;5.40;;;3.33;;
76194;SDS011;64964;48.694;21.206;2024-03-07T00:31:13;3.23;;;2.87;;
76194;SDS011;64964;48.694;21.206;2024-03-07T00:33:38;3.83;;;2.83;;
76194;SDS011;64964;48.694;21.206;2024-03-07T00:36:04;4.00;;;3.10;;
76194;SDS011;64964;48.694;21.206;2024-03-07T00:38:30;4.90;;;3.40;;
76194;SDS011;64964;48.694;21.206;2024-03-07T00:40:56;4.93;;;3.03;;
76194;SDS011;64964;48.694;21.206;2024-03-07T00:43:21;3.80;;;2.90;;
76194;SDS011;64964;48.694;21.206;2024-03-07T00:45:47;3.53;;;2.70;;
76194;SDS011;64964;48.694;21.206;2024-03-07T00:48:15;4.35;;;2.90;;
76194;SDS011;64964;48.694;21.206;2024-03-07T00:50:41;4.38;;;3.25;;
76194;SDS011;64964;48.694;21.206;2024-03-07T00:53:07;3.67;;;2.92;;
76194;SDS011;64964;48.694;21.206;2024-03-07T00:55:33;3.57;;;2.63;;
76194;SDS011;64964;48.694;21.206;2024-03-07T00:57:58;3.83;;;2.85;;
76194;SDS011;64964;48.694;21.206;2024-03-07T01:00:24;3.93;;;2.90;;
76194;SDS011;64964;48.694;21.206;2024-03-07T01:02:49;3.60;;;2.80;;
76194;SDS011;64964;48.694;21.206;2024-03-07T01:05:18;3.95;;;2.85;;
76194;SDS011;64964;48.694;21.206;2024-03-07T01:07:44;3.63;;;2.90;;
76194;SDS011;64964;48.694;21.206;2024-03-07T01:10:11;3.63;;;2.83;;
76194;SDS011;64964;48.694;21.206;2024-03-07T01:12:37;3.25;;;2.80;;
76194;SDS011;64964;48.694;21.206;2024-03-07T01:15:02;3.63;;;2.93;;
76194;SDS011;64964;48.694;21.206;2024-03-07T01:17:29;4.70;;;2.83;;
76194;SDS011;64964;48.694;21.206;2024-03-07T01:19:54;3.30;;;2.85;;
76194;SDS011;64964;48.694;21.206;2024-03-07T01:22:20;4.30;;;3.07;;
76194;SDS011;64964;48.694;21.206;2024-03-07T01:24:46;3.20;;;2.73;;
76194;SDS011;64964;48.694;21.206;2024-03-07T01:27:12;4.20;;;3.00;;
76194;SDS011;64964;48.694;21.206;2024-03-07T01:29:38;4.07;;;2.67;;
76194;SDS011;64964;48.694;21.206;2024-03-07T01:32:06;4.13;;;2.80;;
76194;SDS011;64964;48.694;21.206;2024-03-07T01:34:31;4.23;;;3.10;;
76194;SDS011;64964;48.694;21.206;2024-03-07T01:36:57;3.63;;;2.70;;
76194;SDS011;64964;48.694;21.206;2024-03-07T01:39:22;3.47;;;2.60;;
76194;SDS011;64964;48.694;21.206;2024-03-07T01:41:48;3.50;;;2.90;;
76194;SDS011;64964;48.694;21.206;2024-03-07T01:44:13;3.85;;;2.90;;
76194;SDS011;64964;48.694;21.206;2024-03-07T01:46:39;3.57;;;2.73;;
76194;SDS011;64964;48.694;21.206;2024-03-07T01:49:06;3.72;;;2.60;;
76194;SDS011;64964;48.694;21.206;2024-03-07T01:51:34;3.47;;;2.85;;
76194;SDS011;64964;48.694;21.206;2024-03-07T01:54:01;4.85;;;3.40;;
76194;SDS011;64964;48.694;21.206;2024-03-07T01:56:27;4.07;;;3.17;;
76194;SDS011;64964;48.694;21.206;2024-03-07T01:58:53;4.28;;;3.08;;
76194;SDS011;64964;48.694;21.206;2024-03-07T02:01:19;3.97;;;2.65;;
76194;SDS011;64964;48.694;21.206;2024-03-07T02:03:45;3.43;;;2.77;;
76194;SDS011;64964;48.694;21.206;2024-03-07T02:06:11;3.10;;;2.60;;
76194;SDS011;64964;48.694;21.206;2024-03-07T02:08:37;4.07;;;3.20;;
76194;SDS011;64964;48.694;21.206;2024-03-07T02:11:02;3.07;;;2.47;;
76194;SDS011;64964;48.694;21.206;2024-03-07T02:13:28;3.15;;;2.63;;
76194;SDS011;64964;48.694;21.206;2024-03-07T02:15:53;3.90;;;2.97;;
76194;SDS011;64964;48.694;21.206;2024-03-07T02:18:19;3.25;;;2.58;;
76194;SDS011;64964;48.694;21.206;2024-03-07T02:20:45;4.78;;;2.80;;
76194;SDS011;64964;48.694;21.206;2024-03-07T02:23:11;3.07;;;2.40;;
76194;SDS011;64964;48.694;21.206;2024-03-07T02:25:37;3.42;;;2.60;;
76194;SDS011;64964;48.694;21.206;2024-03-07T02:28:03;3.37;;;2.57;;
76194;SDS011;64964;48.694;21.206;2024-03-07T02:30:29;3.80;;;2.80;;
76194;SDS011;64964;48.694;21.206;2024-03-07T02:32:57;3.10;;;2.65;;
76194;SDS011;64964;48.694;21.206;2024-03-07T02:35:24;3.45;;;2.80;;
76194;SDS011;64964;48.694;21.206;2024-03-07T02:37:50;3.97;;;2.90;;
76194;SDS011;64964;48.694;21.206;2024-03-07T02:40:16;5.03;;;3.20;;
76194;SDS011;64964;48.694;21.206;2024-03-07T02:42:42;3.87;;;2.70;;
76194;SDS011;64964;48.694;21.206;2024-03-07T02:45:07;3.40;;;2.60;;
76194;SDS011;64964;48.694;21.206;2024-03-07T02:47:33;4.25;;;3.00;;
76194;SDS011;64964;48.694;21.206;2024-03-07T02:49:58;4.30;;;3.10;;
76194;SDS011;64964;48.694;21.206;2024-03-07T02:52:24;3.67;;;2.77;;
76194;SDS011;64964;48.694;21.206;2024-03-07T02:54:49;5.63;;;3.07;;
76194;SDS011;64964;48.694;21.206;2024-03-07T02:57:15;4.23;;;3.17;;
76194;SDS011;64964;48.694;21.206;2024-03-07T02:59:40;4.32;;;2.90;;
76194;SDS011;64964;48.694;21.206;2024-03-07T03:02:07;3.97;;;2.90;;
76194;SDS011;64964;48.694;21.206;2024-03-07T03:04:32;4.13;;;2.90;;
76194;SDS011;64964;48.694;21.206;2024-03-07T03:06:58;4.63;;;3.10;;
76194;SDS011;64964;48.694;21.206;2024-03-07T03:09:23;4.93;;;3.40;;
76194;SDS011;64964;48.694;21.206;2024-03-07T03:11:49;5.30;;;3.50;;
76194;SDS011;64964;48.694;21.206;2024-03-07T03:14:14;4.55;;;3.20;;
76194;SDS011;64964;48.694;21.206;2024-03-07T03:16:43;5.47;;;3.30;;
76194;SDS011;64964;48.694;21.206;2024-03-07T03:19:11;5.60;;;3.70;;
76194;SDS011;64964;48.694;21.206;2024-03-07T03:21:37;5.57;;;4.10;;
76194;SDS011;64964;48.694;21.206;2024-03-07T03:24:03;5.50;;;3.88;;
76194;SDS011;64964;48.694;21.206;2024-03-07T03:26:29;5.63;;;3.80;;
76194;SDS011;64964;48.694;21.206;2024-03-07T03:28:56;6.25;;;3.97;;
76194;SDS011;64964;48.694;21.206;2024-03-07T03:31:22;7.85;;;4.53;;
76194;SDS011;64964;48.694;21.206;2024-03-07T03:33:47;5.83;;;4.23;;
76194;SDS011;64964;48.694;21.206;2024-03-07T03:36:13;7.23;;;4.53;;
76194;SDS011;64964;48.694;21.206;2024-03-07T03:38:39;6.65;;;4.28;;
76194;SDS011;64964;48.694;21.206;2024-03-07T03:41:04;7.47;;;4.70;;
76194;SDS011;64964;48.694;21.206;2024-03-07T03:43:30;6.73;;;4.33;;
76194;SDS011;64964;48.694;21.206;2024-03-07T03:45:55;8.77;;;5.00;;
76194;SDS011;64964;48.694;21.206;2024-03-07T03:48:21;7.72;;;4.88;;
76194;SDS011;64964;48.694;21.206;2024-03-07T03:50:47;8.40;;;5.00;;
76194;SDS011;64964;48.694;21.206;2024-03-07T03:53:12;9.57;;;5.43;;
76194;SDS011;64964;48.694;21.206;2024-03-07T03:55:37;9.77;;;5.70;;
76194;SDS011;64964;48.694;21.206;2024-03-07T03:58:03;9.03;;;5.53;;
76194;SDS011;64964;48.694;21.206;2024-03-07T04:00:30;8.48;;;5.38;;
76194;SDS011;64964;48.694;21.206;2024-03-07T04:02:56;9.53;;;5.50;;
76194;SDS011;64964;48.694;21.206;2024-03-07T04:05:21;10.30;;;6.30;;
76194;SDS011;64964;48.694;21.206;2024-03-07T04:07:47;10.85;;;6.32;;
76194;SDS011;64964;48.694;21.206;2024-03-07T04:10:14;9.73;;;5.67;;
76194;SDS011;64964;48.694;21.206;2024-03-07T04:12:41;10.45;;;6.60;;
76194;SDS011;64964;48.694;21.206;2024-03-07T04:15:12;11.00;;;6.43;;
76194;SDS011;64964;48.694;21.206;2024-03-07T04:17:41;12.32;;;6.20;;
76194;SDS011;64964;48.694;21.206;2024-03-07T04:20:07;12.43;;;6.97;;
76194;SDS011;64964;48.694;21.206;2024-03-07T04:22:35;10.70;;;6.60;;
76194;SDS011;64964;48.694;21.206;2024-03-07T04:25:04;13.77;;;7.50;;
76194;SDS011;64964;48.694;21.206;2024-03-07T04:27:31;12.18;;;6.90;;
76194;SDS011;64964;48.694;21.206;2024-03-07T04:29:57;11.90;;;6.75;;
76194;SDS011;64964;48.694;21.206;2024-03-07T04:32:23;11.83;;;6.60;;
76194;SDS011;64964;48.694;21.206;2024-03-07T04:34:48;10.53;;;6.47;;
76194;SDS011;64964;48.694;21.206;2024-03-07T04:37:14;13.48;;;7.32;;
76194;SDS011;64964;48.694;21.206;2024-03-07T04:39:39;14.80;;;7.73;;
76194;SDS011;64964;48.694;21.206;2024-03-07T04:42:05;12.30;;;7.10;;
76194;SDS011;64964;48.694;21.206;2024-03-07T04:44:31;12.38;;;7.07;;
76194;SDS011;64964;48.694;21.206;2024-03-07T04:46:58;14.32;;;8.02;;
76194;SDS011;64964;48.694;21.206;2024-03-07T04:49:25;13.38;;;7.43;;
76194;SDS011;64964;48.694;21.206;2024-03-07T04:51:52;14.68;;;7.85;;
76194;SDS011;64964;48.694;21.206;2024-03-07T04:54:20;13.57;;;8.23;;
76194;SDS011;64964;48.694;21.206;2024-03-07T04:56:46;15.38;;;8.57;;
76194;SDS011;64964;48.694;21.206;2024-03-07T04:59:12;14.60;;;7.78;;
76194;SDS011;64964;48.694;21.206;2024-03-07T05:01:41;15.57;;;8.20;;
76194;SDS011;64964;48.694;21.206;2024-03-07T05:04:07;16.23;;;8.43;;
76194;SDS011;64964;48.694;21.206;2024-03-07T05:06:33;17.57;;;8.33;;
76194;SDS011;64964;48.694;21.206;2024-03-07T05:09:02;14.15;;;8.63;;
76194;SDS011;64964;48.694;21.206;2024-03-07T05:11:31;15.10;;;8.57;;
76194;SDS011;64964;48.694;21.206;2024-03-07T05:13:57;15.80;;;8.73;;
76194;SDS011;64964;48.694;21.206;2024-03-07T05:16:25;16.38;;;8.88;;
76194;SDS011;64964;48.694;21.206;2024-03-07T05:18:51;17.83;;;9.30;;
76194;SDS011;64964;48.694;21.206;2024-03-07T05:21:18;17.73;;;8.82;;
76194;SDS011;64964;48.694;21.206;2024-03-07T05:24:13;18.77;;;8.85;;
76194;SDS011;64964;48.694;21.206;2024-03-07T05:26:38;18.03;;;9.00;;
76194;SDS011;64964;48.694;21.206;2024-03-07T05:29:06;15.65;;;9.02;;
76194;SDS011;64964;48.694;21.206;2024-03-07T05:31:39;16.53;;;8.93;;
76194;SDS011;64964;48.694;21.206;2024-03-07T05:34:14;17.15;;;9.18;;
76194;SDS011;64964;48.694;21.206;2024-03-07T05:36:41;16.45;;;9.50;;
76194;SDS011;64964;48.694;21.206;2024-03-07T05:39:11;16.27;;;8.88;;
76194;SDS011;64964;48.694;21.206;2024-03-07T05:41:37;16.23;;;8.77;;
76194;SDS011;64964;48.694;21.206;2024-03-07T05:44:04;17.80;;;8.93;;
76194;SDS011;64964;48.694;21.206;2024-03-07T05:46:33;16.42;;;8.70;;
76194;SDS011;64964;48.694;21.206;2024-03-07T05:49:09;16.15;;;9.10;;
76194;SDS011;64964;48.694;21.206;2024-03-07T05:51:34;18.52;;;9.40;;
76194;SDS011;64964;48.694;21.206;2024-03-07T05:54:00;19.38;;;9.57;;
76194;SDS011;64964;48.694;21.206;2024-03-07T05:56:26;18.00;;;9.53;;
76194;SDS011;64964;48.694;21.206;2024-03-07T05:58:52;17.38;;;9.55;;
76194;SDS011;64964;48.694;21.206;2024-03-07T06:01:17;16.17;;;9.03;;
76194;SDS011;64964;48.694;21.206;2024-03-07T06:03:46;19.58;;;9.95;;
76194;SDS011;64964;48.694;21.206;2024-03-07T06:06:13;21.90;;;10.65;;
76194;SDS011;64964;48.694;21.206;2024-03-07T06:08:39;18.13;;;9.27;;
76194;SDS011;64964;48.694;21.206;2024-03-07T06:11:07;18.30;;;9.88;;
76194;SDS011;64964;48.694;21.206;2024-03-07T06:13:33;19.53;;;9.70;;
76194;SDS011;64964;48.694;21.206;2024-03-07T06:15:58;19.57;;;9.93;;
76194;SDS011;64964;48.694;21.206;2024-03-07T06:18:23;20.87;;;9.60;;
76194;SDS011;64964;48.694;21.206;2024-03-07T06:20:49;20.03;;;9.67;;
76194;SDS011;64964;48.694;21.206;2024-03-07T06:23:14;17.80;;;9.40;;
76194;SDS011;64964;48.694;21.206;2024-03-07T06:25:41;18.88;;;9.93;;
76194;SDS011;64964;48.694;21.206;2024-03-07T06:28:16;18.92;;;9.63;;
76194;SDS011;64964;48.694;21.206;2024-03-07T06:30:46;18.40;;;10.23;;
76194;SDS011;64964;48.694;21.206;2024-03-07T06:33:12;18.33;;;9.43;;
76194;SDS011;64964;48.694;21.206;2024-03-07T06:35:38;18.70;;;9.95;;
76194;SDS011;64964;48.694;21.206;2024-03-07T06:38:05;20.20;;;10.63;;
76194;SDS011;64964;48.694;21.206;2024-03-07T06:40:31;18.33;;;9.35;;
76194;SDS011;64964;48.694;21.206;2024-03-07T06:42:58;19.88;;;11.02;;
76194;SDS011;64964;48.694;21.206;2024-03-07T06:45:24;20.20;;;11.23;;
76194;SDS011;64964;48.694;21.206;2024-03-07T06:47:50;20.80;;;10.63;;
76194;SDS011;64964;48.694;21.206;2024-03-07T06:50:17;22.10;;;10.40;;
76194;SDS011;64964;48.694;21.206;2024-03-07T06:52:45;19.77;;;11.00;;
76194;SDS011;64964;48.694;21.206;2024-03-07T06:55:13;19.77;;;10.43;;
76194;SDS011;64964;48.694;21.206;2024-03-07T06:57:42;22.60;;;10.88;;
76194;SDS011;64964;48.694;21.206;2024-03-07T07:00:08;19.50;;;10.52;;
76194;SDS011;64964;48.694;21.206;2024-03-07T07:02:38;19.17;;;10.13;;
76194;SDS011;64964;48.694;21.206;2024-03-07T07:05:07;19.25;;;10.13;;
76194;SDS011;64964;48.694;21.206;2024-03-07T07:07:39;20.90;;;10.80;;
76194;SDS011;64964;48.694;21.206;2024-03-07T07:10:08;21.35;;;10.32;;
76194;SDS011;64964;48.694;21.206;2024-03-07T07:12:47;17.83;;;9.70;;
76194;SDS011;64964;48.694;21.206;2024-03-07T07:15:14;20.70;;;9.77;;
76194;SDS011;64964;48.694;21.206;2024-03-07T07:17:41;21.77;;;9.80;;
76194;SDS011;64964;48.694;21.206;2024-03-07T07:20:11;19.38;;;9.55;;
76194;SDS011;64964;48.694;21.206;2024-03-07T07:22:39;19.98;;;9.98;;
76194;SDS011;64964;48.694;21.206;2024-03-07T07:25:05;16.70;;;9.60;;
76194;SDS011;64964;48.694;21.206;2024-03-07T07:27:38;19.58;;;10.10;;
76194;SDS011;64964;48.694;21.206;2024-03-07T07:30:05;20.15;;;9.82;;
76194;SDS011;64964;48.694;21.206;2024-03-07T07:32:31;20.13;;;10.23;;
76194;SDS011;64964;48.694;21.206;2024-03-07T07:34:57;20.63;;;10.65;;
76194;SDS011;64964;48.694;21.206;2024-03-07T07:37:22;23.10;;;11.20;;
76194;SDS011;64964;48.694;21.206;2024-03-07T07:39:48;21.67;;;10.70;;
76194;SDS011;64964;48.694;21.206;2024-03-07T07:42:13;24.00;;;11.30;;
76194;SDS011;64964;48.694;21.206;2024-03-07T07:44:39;22.50;;;11.40;;
76194;SDS011;64964;48.694;21.206;2024-03-07T07:47:05;22.02;;;11.75;;
76194;SDS011;64964;48.694;21.206;2024-03-07T07:49:31;24.37;;;11.17;;
76194;SDS011;64964;48.694;21.206;2024-03-07T07:51:56;25.30;;;12.97;;
76194;SDS011;64964;48.694;21.206;2024-03-07T07:54:21;25.27;;;12.00;;
76194;SDS011;64964;48.694;21.206;2024-03-07T07:56:47;25.97;;;12.03;;
76194;SDS011;64964;48.694;21.206;2024-03-07T07:59:16;26.13;;;12.45;;
76194;SDS011;64964;48.694;21.206;2024-03-07T08:01:41;22.93;;;11.67;;
76194;SDS011;64964;48.694;21.206;2024-03-07T08:04:07;23.83;;;12.37;;
76194;SDS011;64964;48.694;21.206;2024-03-07T08:06:34;23.38;;;12.55;;
76194;SDS011;64964;48.694;21.206;2024-03-07T08:09:00;23.20;;;11.40;;
76194;SDS011;64964;48.694;21.206;2024-03-07T08:11:25;25.47;;;12.53;;
76194;SDS011;64964;48.694;21.206;2024-03-07T08:13:51;26.45;;;12.23;;
76194;SDS011;64964;48.694;21.206;2024-03-07T08:16:16;25.57;;;12.43;;
76194;SDS011;64964;48.694;21.206;2024-03-07T08:18:43;26.17;;;13.25;;
76194;SDS011;64964;48.694;21.206;2024-03-07T08:21:09;26.07;;;12.13;;
76194;SDS011;64964;48.694;21.206;2024-03-07T08:23:38;26.05;;;12.13;;
76194;SDS011;64964;48.694;21.206;2024-03-07T08:26:03;23.17;;;12.00;;
76194;SDS011;64964;48.694;21.206;2024-03-07T08:28:30;26.40;;;13.37;;
76194;SDS011;64964;48.694;21.206;2024-03-07T08:30:56;23.55;;;12.30;;
76194;SDS011;64964;48.694;21.206;2024-03-07T08:33:21;27.63;;;13.10;;
76194;SDS011;64964;48.694;21.206;2024-03-07T08:35:47;25.00;;;12.47;;
76194;SDS011;64964;48.694;21.206;2024-03-07T08:38:12;25.67;;;11.95;;
76194;SDS011;64964;48.694;21.206;2024-03-07T08:40:38;25.45;;;11.80;;
76194;SDS011;64964;48.694;21.206;2024-03-07T08:43:04;23.80;;;12.50;;
76194;SDS011;64964;48.694;21.206;2024-03-07T08:45:32;23.63;;;12.40;;
76194;SDS011;64964;48.694;21.206;2024-03-07T08:48:00;23.65;;;11.68;;
76194;SDS011;64964;48.694;21.206;2024-03-07T08:50:29;23.65;;;11.70;;
76194;SDS011;64964;48.694;21.206;2024-03-07T08:52:55;23.58;;;11.77;;
76194;SDS011;64964;48.694;21.206;2024-03-07T08:55:22;27.13;;;12.60;;
76194;SDS011;64964;48.694;21.206;2024-03-07T08:57:50;25.00;;;11.93;;
76194;SDS011;64964;48.694;21.206;2024-03-07T09:00:16;26.63;;;12.45;;
76194;SDS011;64964;48.694;21.206;2024-03-07T09:02:50;24.00;;;11.73;;
76194;SDS011;64964;48.694;21.206;2024-03-07T09:05:20;22.45;;;11.63;;
76194;SDS011;64964;48.694;21.206;2024-03-07T09:07:50;21.30;;;11.43;;
76194;SDS011;64964;48.694;21.206;2024-03-07T09:10:17;25.10;;;11.67;;
76194;SDS011;64964;48.694;21.206;2024-03-07T09:12:44;24.58;;;12.10;;
76194;SDS011;64964;48.694;21.206;2024-03-07T09:15:10;20.08;;;10.85;;
76194;SDS011;64964;48.694;21.206;2024-03-07T09:17:36;22.52;;;11.10;;
76194;SDS011;64964;48.694;21.206;2024-03-07T09:20:02;21.23;;;10.63;;
76194;SDS011;64964;48.694;21.206;2024-03-07T09:22:32;23.50;;;11.23;;
76194;SDS011;64964;48.694;21.206;2024-03-07T09:24:58;19.93;;;10.67;;
76194;SDS011;64964;48.694;21.206;2024-03-07T09:27:23;22.88;;;11.30;;
76194;SDS011;64964;48.694;21.206;2024-03-07T09:29:49;23.23;;;10.50;;
76194;SDS011;64964;48.694;21.206;2024-03-07T09:32:14;20.53;;;10.27;;
76194;SDS011;64964;48.694;21.206;2024-03-07T09:34:39;18.13;;;9.47;;
76194;SDS011;64964;48.694;21.206;2024-03-07T09:37:05;18.90;;;10.18;;
76194;SDS011;64964;48.694;21.206;2024-03-07T09:39:33;21.80;;;10.30;;
76194;SDS011;64964;48.694;21.206;2024-03-07T09:42:02;19.15;;;9.95;;
76194;SDS011;64964;48.694;21.206;2024-03-07T09:44:28;24.02;;;11.20;;
76194;SDS011;64964;48.694;21.206;2024-03-07T09:46:55;20.17;;;10.52;;
76194;SDS011;64964;48.694;21.206;2024-03-07T09:49:23;20.23;;;10.33;;
76194;SDS011;64964;48.694;21.206;2024-03-07T09:51:53;22.08;;;10.68;;
76194;SDS011;64964;48.694;21.206;2024-03-07T09:54:22;23.48;;;10.57;;
76194;SDS011;64964;48.694;21.206;2024-03-07T09:56:49;22.45;;;10.30;;
76194;SDS011;64964;48.694;21.206;2024-03-07T09:59:17;19.73;;;9.80;;
76194;SDS011;64964;48.694;21.206;2024-03-07T10:01:45;20.90;;;10.40;;
76194;SDS011;64964;48.694;21.206;2024-03-07T10:04:12;24.25;;;11.27;;
76194;SDS011;64964;48.694;21.206;2024-03-07T10:06:42;23.35;;;11.50;;
76194;SDS011;64964;48.694;21.206;2024-03-07T10:09:10;23.27;;;11.65;;
76194;SDS011;64964;48.694;21.206;2024-03-07T10:11:42;22.92;;;11.93;;
76194;SDS011;64964;48.694;21.206;2024-03-07T10:14:08;23.60;;;11.40;;
76194;SDS011;64964;48.694;21.206;2024-03-07T10:16:34;25.42;;;11.20;;
76194;SDS011;64964;48.694;21.206;2024-03-07T10:19:03;22.93;;;11.30;;
76194;SDS011;64964;48.694;21.206;2024-03-07T10:21:29;25.63;;;11.45;;
76194;SDS011;64964;48.694;21.206;2024-03-07T10:24:04;21.83;;;11.13;;
76194;SDS011;64964;48.694;21.206;2024-03-07T10:26:34;21.83;;;10.73;;
76194;SDS011;64964;48.694;21.206;2024-03-07T10:29:00;25.50;;;11.93;;
76194;SDS011;64964;48.694;21.206;2024-03-07T10:31:29;23.35;;;11.32;;
76194;SDS011;64964;48.694;21.206;2024-03-07T10:33:59;22.88;;;11.60;;
76194;SDS011;64964;48.694;21.206;2024-03-07T10:36:31;24.30;;;11.80;;
76194;SDS011;64964;48.694;21.206;2024-03-07T10:39:00;24.20;;;11.45;;
76194;SDS011;64964;48.694;21.206;2024-03-07T10:41:45;25.98;;;12.10;;
76194;SDS011;64964;48.694;21.206;2024-03-07T10:44:20;24.83;;;12.15;;
76194;SDS011;64964;48.694;21.206;2024-03-07T10:46:55;25.23;;;12.27;;
76194;SDS011;64964;48.694;21.206;2024-03-07T10:49:22;24.30;;;12.17;;
76194;SDS011;64964;48.694;21.206;2024-03-07T10:52:03;27.92;;;12.73;;
76194;SDS011;64964;48.694;21.206;2024-03-07T10:54:48;26.27;;;12.25;;
76194;SDS011;64964;48.694;21.206;2024-03-07T10:57:50;26.00;;;11.77;;
76194;SDS011;64964;48.694;21.206;2024-03-07T11:00:19;23.17;;;11.90;;
76194;SDS011;64964;48.694;21.206;2024-03-07T11:03:08;25.27;;;12.47;;
76194;SDS011;64964;48.694;21.206;2024-03-07T11:05:34;25.40;;;12.15;;
76194;SDS011;64964;48.694;21.206;2024-03-07T11:08:01;26.38;;;13.18;;
76194;SDS011;64964;48.694;21.206;2024-03-07T11:10:37;25.73;;;12.65;;
76194;SDS011;64964;48.694;21.206;2024-03-07T11:13:06;25.83;;;12.60;;
76194;SDS011;64964;48.694;21.206;2024-03-07T11:15:35;26.25;;;12.75;;
76194;SDS011;64964;48.694;21.206;2024-03-07T11:18:02;28.15;;;12.55;;
76194;SDS011;64964;48.694;21.206;2024-03-07T11:20:38;25.92;;;12.48;;
76194;SDS011;64964;48.694;21.206;2024-03-07T11:26:03;28.30;;;12.90;;
76194;SDS011;64964;48.694;21.206;2024-03-07T11:28:36;31.25;;;13.05;;
76194;SDS011;64964;48.694;21.206;2024-03-07T11:31:08;24.95;;;13.07;;
76194;SDS011;64964;48.694;21.206;2024-03-07T11:33:36;24.23;;;12.65;;
76194;SDS011;64964;48.694;21.206;2024-03-07T11:36:05;26.02;;;12.80;;
76194;SDS011;64964;48.694;21.206;2024-03-07T11:38:37;24.90;;;12.53;;
76194;SDS011;64964;48.694;21.206;2024-03-07T11:41:09;28.50;;;13.18;;
76194;SDS011;64964;48.694;21.206;2024-03-07T11:43:38;25.42;;;13.02;;
76194;SDS011;64964;48.694;21.206;2024-03-07T11:46:05;29.65;;;13.90;;
76194;SDS011;64964;48.694;21.206;2024-03-07T11:48:38;27.60;;;12.82;;
76194;SDS011;64964;48.694;21.206;2024-03-07T11:51:06;28.40;;;13.80;;
76194;SDS011;64964;48.694;21.206;2024-03-07T11:53:35;28.48;;;13.13;;
76194;SDS011;64964;48.694;21.206;2024-03-07T11:56:03;27.98;;;13.52;;
76194;SDS011;64964;48.694;21.206;2024-03-07T11:58:37;27.55;;;12.38;;
76194;SDS011;64964;48.694;21.206;2024-03-07T12:01:05;27.08;;;13.43;;
76194;SDS011;64964;48.694;21.206;2024-03-07T12:03:31;26.97;;;12.67;;
76194;SDS011;64964;48.694;21.206;2024-03-07T12:05:59;27.30;;;12.90;;
76194;SDS011;64964;48.694;21.206;2024-03-07T12:08:24;27.73;;;13.70;;
76194;SDS011;64964;48.694;21.206;2024-03-07T12:10:51;26.50;;;13.15;;
76194;SDS011;64964;48.694;21.206;2024-03-07T12:13:21;26.80;;;12.47;;
76194;SDS011;64964;48.694;21.206;2024-03-07T12:15:48;26.42;;;13.00;;
76194;SDS011;64964;48.694;21.206;2024-03-07T12:18:16;27.45;;;13.32;;
76194;SDS011;64964;48.694;21.206;2024-03-07T12:20:43;28.83;;;13.15;;
76194;SDS011;64964;48.694;21.206;2024-03-07T12:23:19;26.65;;;12.88;;
76194;SDS011;64964;48.694;21.206;2024-03-07T12:25:44;25.10;;;13.20;;
76194;SDS011;64964;48.694;21.206;2024-03-07T12:28:11;26.30;;;13.48;;
76194;SDS011;64964;48.694;21.206;2024-03-07T12:33:14;27.40;;;12.87;;
76194;SDS011;64964;48.694;21.206;2024-03-07T12:35:41;27.17;;;13.05;;
76194;SDS011;64964;48.694;21.206;2024-03-07T12:38:08;33.15;;;13.98;;
76194;SDS011;64964;48.694;21.206;2024-03-07T12:40:36;28.20;;;14.15;;
76194;SDS011;64964;48.694;21.206;2024-03-07T12:43:07;28.95;;;14.38;;
76194;SDS011;64964;48.694;21.206;2024-03-07T12:45:42;30.20;;;14.50;;
76194;SDS011;64964;48.694;21.206;2024-03-07T12:48:20;28.40;;;13.98;;
76194;SDS011;64964;48.694;21.206;2024-03-07T12:50:49;30.17;;;14.80;;
76194;SDS011;64964;48.694;21.206;2024-03-07T12:53:24;32.17;;;13.95;;
76194;SDS011;64964;48.694;21.206;2024-03-07T12:55:54;28.85;;;13.50;;
76194;SDS011;64964;48.694;21.206;2024-03-07T12:58:20;30.93;;;13.90;;
76194;SDS011;64964;48.694;21.206;2024-03-07T13:00:50;30.83;;;14.60;;
76194;SDS011;64964;48.694;21.206;2024-03-07T13:03:20;27.30;;;13.45;;
76194;SDS011;64964;48.694;21.206;2024-03-07T13:05:46;29.40;;;13.73;;
76194;SDS011;64964;48.694;21.206;2024-03-07T13:08:12;26.65;;;13.25;;
76194;SDS011;64964;48.694;21.206;2024-03-07T13:10:41;28.57;;;13.83;;
76194;SDS011;64964;48.694;21.206;2024-03-07T13:13:07;28.15;;;13.63;;
76194;SDS011;64964;48.694;21.206;2024-03-07T13:15:34;29.38;;;14.30;;
76194;SDS011;64964;48.694;21.206;2024-03-07T13:18:02;32.15;;;14.35;;
76194;SDS011;64964;48.694;21.206;2024-03-07T13:20:30;30.98;;;13.63;;
76194;SDS011;64964;48.694;21.206;2024-03-07T13:22:55;29.73;;;13.93;;
76194;SDS011;64964;48.694;21.206;2024-03-07T13:25:25;29.35;;;14.10;;
76194;SDS011;64964;48.694;21.206;2024-03-07T13:28:04;30.10;;;14.05;;
76194;SDS011;64964;48.694;21.206;2024-03-07T13:30:33;29.13;;;14.25;;
76194;SDS011;64964;48.694;21.206;2024-03-07T13:33:01;30.37;;;14.10;;
76194;SDS011;64964;48.694;21.206;2024-03-07T13:35:28;33.05;;;13.82;;
76194;SDS011;64964;48.694;21.206;2024-03-07T13:37:54;31.33;;;14.95;;
76194;SDS011;64964;48.694;21.206;2024-03-07T13:40:20;30.30;;;14.50;;
76194;SDS011;64964;48.694;21.206;2024-03-07T13:42:56;31.20;;;14.57;;
76194;SDS011;64964;48.694;21.206;2024-03-07T13:47:52;29.52;;;14.45;;
76194;SDS011;64964;48.694;21.206;2024-03-07T13:50:19;28.63;;;13.80;;
76194;SDS011;64964;48.694;21.206;2024-03-07T13:52:47;34.05;;;15.32;;
76194;SDS011;64964;48.694;21.206;2024-03-07T13:55:33;28.02;;;13.68;;
76194;SDS011;64964;48.694;21.206;2024-03-07T13:58:06;28.17;;;13.87;;
76194;SDS011;64964;48.694;21.206;2024-03-07T14:00:47;30.40;;;14.18;;
76194;SDS011;64964;48.694;21.206;2024-03-07T14:03:28;29.73;;;14.02;;
76194;SDS011;64964;48.694;21.206;2024-03-07T14:06:12;28.55;;;14.52;;
76194;SDS011;64964;48.694;21.206;2024-03-07T14:14:26;31.33;;;15.18;;
76194;SDS011;64964;48.694;21.206;2024-03-07T14:31:05;29.70;;;14.05;;
76194;SDS011;64964;48.694;21.206;2024-03-07T14:33:47;31.10;;;14.35;;
76194;SDS011;64964;48.694;21.206;2024-03-07T14:36:19;28.60;;;14.38;;
76194;SDS011;64964;48.694;21.206;2024-03-07T14:38:57;31.93;;;14.47;;
76194;SDS011;64964;48.694;21.206;2024-03-07T14:41:23;30.42;;;15.07;;
76194;SDS011;64964;48.694;21.206;2024-03-07T14:44:08;28.27;;;14.73;;
76194;SDS011;64964;48.694;21.206;2024-03-07T14:46:33;29.27;;;14.37;;
76194;SDS011;64964;48.694;21.206;2024-03-07T14:49:00;27.50;;;13.95;;
76194;SDS011;64964;48.694;21.206;2024-03-07T14:51:25;25.73;;;13.83;;